Time;durP1;ratioP1;P1;durP2;ratioP2;P2;SDS_P1;SDS_P2;PMS_P1;PMS_P2;Temp;Humidity;BMP_temperature;BMP_pressure;BME280_temperature;BME280_humidity;BME280_pressure;Samples;Min_cycle;Max_cycle;Signal;HPM_P1;HPM_P2
2024/02/12 00:02:08;;;;;;;;;;;7.10;99.90;;;-146.41;100.00;57768.22;5018134;28;1599;-68
2024/02/12 00:04:37;;;;;;;;;;;7.10;99.90;;;-146.41;100.00;57768.22;5018825;28;1299;-69
2024/02/12 00:07:05;;;;;;;;;;;7.10;99.90;;;-146.41;100.00;57768.22;5019831;28;1375;-68
2024/02/12 00:09:31;;;;;;;;;;;7.20;99.90;;;-146.41;100.00;57768.22;5020805;28;1198;-69
2024/02/12 00:11:58;;;;;;;;;;;7.20;99.90;;;-146.41;100.00;57768.22;5022075;28;1249;-68
2024/02/12 00:14:25;;;;;;;;;;;7.20;99.90;;;-146.41;100.00;57768.22;5021635;28;1397;-69
2024/02/12 00:16:54;;;;;;;;;;;7.20;99.90;;;-146.41;100.00;57768.22;5018991;28;1350;-68
2024/02/12 00:19:22;;;;;;;;;;;7.20;99.90;;;-146.41;100.00;57768.22;5021355;28;1934;-68
2024/02/12 00:21:49;;;;;;;;;;;7.10;99.90;;;-146.41;100.00;57768.22;5021314;28;1567;-69
2024/02/12 00:24:16;;;;;;;;;;;7.10;99.90;;;-146.41;100.00;57768.22;5020545;28;1422;-69
2024/02/12 00:26:43;;;;;;;;;;;7.10;99.90;;;-146.41;100.00;57768.22;5020681;28;1234;-69
2024/02/12 00:29:13;;;;;;;;;;;7.10;99.90;;;-146.41;100.00;57768.22;5021018;28;1419;-69
2024/02/12 00:31:40;;;;;;;;;;;7.10;99.90;;;-146.41;100.00;57768.22;5020363;28;1587;-68
2024/02/12 00:34:07;;;;;;;;;;;7.10;99.90;;;-146.41;100.00;57768.22;5020105;28;1342;-69
2024/02/12 00:36:34;;;;;;;;;;;7.10;99.90;;;-146.41;100.00;57768.22;5026873;28;1265;-69
2024/02/12 00:39:09;;;;;;;;;;;7.10;99.90;;;-146.41;100.00;57768.22;5037942;28;1910;-69
2024/02/12 00:41:36;;;;;;;;;;;7.10;99.90;;;-146.41;100.00;57768.22;5026520;28;1334;-69
2024/02/12 00:44:04;;;;;;;;;;;7.10;99.90;;;-146.41;100.00;57768.22;5021571;28;1476;-69
2024/02/12 00:46:31;;;;;;;;;;;7.00;99.90;;;-146.41;100.00;57768.22;5025098;28;1269;-68
2024/02/12 00:48:57;;;;;;;;;;;7.10;99.90;;;-146.41;100.00;57768.22;5021404;28;1210;-68
2024/02/12 00:51:24;;;;;;;;;;;7.10;99.90;;;-146.41;100.00;57768.22;5025539;28;1316;-68
2024/02/12 00:53:52;;;;;;;;;;;7.10;99.90;;;-146.41;100.00;57768.22;5024675;28;1281;-68
2024/02/12 00:56:19;;;;;;;;;;;7.10;99.90;;;-146.41;100.00;57768.22;5024570;28;1398;-68
2024/02/12 00:58:46;;;;;;;;;;;7.10;99.90;;;-146.41;100.00;57768.22;5025989;28;1914;-69
2024/02/12 01:01:13;;;;;;;;;;;7.00;99.90;;;-146.41;100.00;57768.22;5025967;28;1363;-67
2024/02/12 01:03:41;;;;;;;;;;;7.00;99.90;;;-146.41;100.00;57768.22;5023112;28;1330;-68
2024/02/12 01:06:08;;;;;;;;;;;7.00;99.90;;;-146.41;100.00;57768.22;5010634;28;1407;-68
2024/02/12 01:08:38;;;;;;;;;;;7.00;99.90;;;-146.41;100.00;57768.22;5023710;28;1381;-68
2024/02/12 01:11:07;;;;;;;;;;;7.00;99.90;;;-146.41;100.00;57768.22;5019047;28;1376;-69
2024/02/12 01:13:35;;;;;;;;;;;7.00;99.90;;;-146.41;100.00;57768.22;5023648;28;1362;-69
2024/02/12 01:16:02;;;;;;;;;;;7.00;99.90;;;-146.41;100.00;57768.22;5028532;28;1412;-68
2024/02/12 01:18:28;;;;;;;;;;;7.10;99.90;;;-146.41;100.00;57768.22;5029113;28;1910;-67
2024/02/12 01:20:55;;;;;;;;;;;7.00;99.90;;;-146.41;100.00;57768.22;5027778;28;1325;-68
2024/02/12 01:23:23;;;;;;;;;;;7.10;99.90;;;-146.41;100.00;57768.22;5028427;28;1328;-68
2024/02/12 01:25:51;;;;;;;;;;;7.10;99.90;;;-146.41;100.00;57768.22;5024235;28;1421;-69
2024/02/12 01:28:19;;;;;;;;;;;7.20;99.90;;;-146.41;100.00;57768.22;5028930;28;1349;-69
2024/02/12 01:30:47;;;;;;;;;;;7.10;99.90;;;-146.41;100.00;57768.22;5024513;28;1439;-68
2024/02/12 01:33:16;;;;;;;;;;;7.10;99.90;;;-146.41;100.00;57768.22;5027225;28;1358;-68
2024/02/12 01:35:43;;;;;;;;;;;7.10;99.90;;;-146.41;100.00;57768.22;5031136;28;1455;-68
2024/02/12 01:38:11;;;;;;;;;;;7.10;99.90;;;-146.41;100.00;57768.22;5025789;28;1319;-68
2024/02/12 01:40:38;;;;;;;;;;;7.10;99.90;;;-146.41;100.00;57768.22;5022005;28;1358;-69
2024/02/12 01:43:05;;;;;;;;;;;7.10;99.90;;;-146.41;100.00;57768.22;5020731;28;1345;-69
2024/02/12 01:45:33;;;;;;;;;;;7.10;99.90;;;-146.41;100.00;57768.22;5022302;28;1768;-69
2024/02/12 01:48:02;;;;;;;;;;;7.00;99.90;;;-146.41;100.00;57768.22;5020164;28;1201;-69
2024/02/12 01:50:31;;;;;;;;;;;7.10;99.90;;;-146.41;100.00;57768.22;5019985;28;1162;-69
2024/02/12 01:53:00;;;;;;;;;;;7.00;99.90;;;-146.41;100.00;57768.22;5018735;28;1354;-69
2024/02/12 01:55:29;;;;;;;;;;;6.90;99.90;;;-146.41;100.00;57768.22;5022272;28;1339;-68
2024/02/12 01:57:56;;;;;;;;;;;7.00;99.90;;;-146.41;100.00;57768.22;5022047;28;1137;-69
2024/02/12 02:00:26;;;;;;;;;;;7.00;99.90;;;-146.41;100.00;57768.22;5022182;28;1907;-69
2024/02/12 02:02:53;;;;;;;;;;;6.90;99.90;;;-146.41;100.00;57768.22;5019156;28;1549;-68
2024/02/12 02:05:20;;;;;;;;;;;7.00;99.90;;;-146.41;100.00;57768.22;5018023;28;1382;-68
2024/02/12 02:07:52;;;;;;;;;;;7.00;99.90;;;-146.41;100.00;57768.22;5020050;28;1372;-69
2024/02/12 02:10:20;;;;;;;;;;;7.00;99.90;;;-146.41;100.00;57768.22;5018939;28;1215;-69
2024/02/12 02:12:48;;;;;;;;;;;6.90;99.90;;;-146.41;100.00;57768.22;5017870;28;1134;-69
2024/02/12 02:15:15;;;;;;;;;;;7.00;99.90;;;-146.41;100.00;57768.22;5018561;28;1381;-69
2024/02/12 02:17:42;;;;;;;;;;;7.00;99.90;;;-146.41;100.00;57768.22;5021324;28;1185;-69
2024/02/12 02:20:12;;;;;;;;;;;7.00;99.90;;;-146.41;100.00;57768.22;5017857;28;1989;-69
2024/02/12 02:22:39;;;;;;;;;;;6.90;99.90;;;-146.41;100.00;57768.22;5022782;28;1142;-69
2024/02/12 02:25:09;;;;;;;;;;;7.00;99.90;;;-146.41;100.00;57768.22;5019081;28;1328;-69
2024/02/12 02:27:36;;;;;;;;;;;6.90;99.90;;;-146.41;100.00;57768.22;5008724;28;1317;-69
2024/02/12 02:30:07;;;;;;;;;;;6.90;99.90;;;-146.41;100.00;57768.22;5021643;28;1424;-69
2024/02/12 02:32:37;;;;;;;;;;;7.00;99.90;;;-146.41;100.00;57768.22;5019407;28;1412;-69
2024/02/12 02:35:05;;;;;;;;;;;7.00;99.90;;;-146.41;100.00;57768.22;5015788;28;1477;-69
2024/02/12 02:37:33;;;;;;;;;;;6.90;99.90;;;-146.41;100.00;57768.22;5004444;28;1295;-69
2024/02/12 02:40:00;;;;;;;;;;;6.90;99.90;;;-146.41;100.00;57768.22;5021780;28;2011;-69
2024/02/12 02:42:27;;;;;;;;;;;6.90;99.90;;;-146.41;100.00;57768.22;5017517;28;1398;-69
2024/02/12 02:44:54;;;;;;;;;;;7.00;99.90;;;-146.41;100.00;57768.22;5019564;28;1479;-68
2024/02/12 02:47:21;;;;;;;;;;;6.90;99.90;;;-146.41;100.00;57768.22;5018057;28;1257;-69
2024/02/12 02:49:48;;;;;;;;;;;6.80;99.90;;;-146.41;100.00;57768.22;5018400;28;1141;-69
2024/02/12 02:52:17;;;;;;;;;;;6.70;99.90;;;-146.41;100.00;57768.22;5017026;28;1397;-69
2024/02/12 02:54:45;;;;;;;;;;;6.80;99.90;;;-146.41;100.00;57768.22;5018665;28;1336;-69
2024/02/12 02:57:13;;;;;;;;;;;6.80;99.90;;;-146.41;100.00;57768.22;5018523;28;1479;-69
2024/02/12 02:59:43;;;;;;;;;;;6.70;99.90;;;-146.41;100.00;57768.22;5017347;28;1989;-69
2024/02/12 03:02:12;;;;;;;;;;;6.70;99.90;;;-146.41;100.00;57768.22;5016279;28;1407;-68
2024/02/12 03:04:42;;;;;;;;;;;6.70;99.90;;;-146.41;100.00;57768.22;5019641;28;1369;-68
2024/02/12 03:07:10;;;;;;;;;;;6.60;99.90;;;-146.41;100.00;57768.22;5019036;28;1165;-69
2024/02/12 03:09:37;;;;;;;;;;;6.60;99.90;;;-146.41;100.00;57768.22;5014818;28;1467;-68
2024/02/12 03:12:05;;;;;;;;;;;6.60;99.90;;;-146.41;100.00;57768.22;5021521;28;1424;-69
2024/02/12 03:14:33;;;;;;;;;;;6.70;99.90;;;-146.41;100.00;57768.22;5022044;28;1515;-69
2024/02/12 03:17:00;;;;;;;;;;;6.70;99.90;;;-146.41;100.00;57768.22;5021796;28;1146;-68
2024/02/12 03:19:28;;;;;;;;;;;6.60;99.90;;;-146.41;100.00;57768.22;5018937;28;1910;-68
2024/02/12 03:21:55;;;;;;;;;;;6.70;99.90;;;-146.41;100.00;57768.22;5014929;28;1233;-68
2024/02/12 03:24:22;;;;;;;;;;;6.70;99.90;;;-146.41;100.00;57768.22;5018145;28;1387;-69
2024/02/12 03:26:50;;;;;;;;;;;6.70;99.90;;;-146.41;100.00;57768.22;5018861;28;1437;-69
2024/02/12 03:29:20;;;;;;;;;;;6.70;99.90;;;-146.41;100.00;57768.22;5019624;28;2012;-68
2024/02/12 03:31:47;;;;;;;;;;;6.70;99.90;;;-146.41;100.00;57768.22;5018290;28;1085;-69
2024/02/12 03:34:14;;;;;;;;;;;6.70;99.90;;;-146.41;100.00;57768.22;5019337;28;1406;-69
2024/02/12 03:36:42;;;;;;;;;;;6.80;99.90;;;-146.41;100.00;57768.22;5020730;28;1096;-69
2024/02/12 03:39:14;;;;;;;;;;;6.70;99.90;;;-146.41;100.00;57768.22;5016903;28;1916;-69
2024/02/12 03:41:41;;;;;;;;;;;6.70;99.90;;;-146.41;100.00;57768.22;5017676;28;1472;-68
2024/02/12 03:44:09;;;;;;;;;;;6.70;99.90;;;-146.41;100.00;57768.22;5017486;28;1355;-69
2024/02/12 03:46:39;;;;;;;;;;;6.70;99.90;;;-146.41;100.00;57768.22;5018858;28;1272;-68
2024/02/12 04:00:18;;;;;;;;;;;6.70;99.90;;;-146.41;100.00;57768.22;5020619;28;1918;-69
2024/02/12 04:02:45;;;;;;;;;;;6.70;99.90;;;-146.41;100.00;57768.22;5018478;28;1350;-69
2024/02/12 04:05:12;;;;;;;;;;;6.60;99.90;;;-146.41;100.00;57768.22;5019103;28;1383;-69
2024/02/12 04:07:41;;;;;;;;;;;6.70;99.90;;;-146.41;100.00;57768.22;5018541;28;1142;-68
2024/02/12 04:10:10;;;;;;;;;;;6.60;99.90;;;-146.41;100.00;57768.22;5016487;28;1204;-68
2024/02/12 04:12:40;;;;;;;;;;;6.70;99.90;;;-146.41;100.00;57768.22;5015846;28;1092;-68
2024/02/12 04:15:10;;;;;;;;;;;6.60;99.90;;;-146.41;100.00;57768.22;5018457;28;1340;-68
2024/02/12 04:17:38;;;;;;;;;;;6.60;99.90;;;-146.41;100.00;57768.22;5022244;28;1404;-69
2024/02/12 04:20:06;;;;;;;;;;;6.50;99.90;;;-146.41;100.00;57768.22;5017332;28;1977;-68
2024/02/12 04:22:36;;;;;;;;;;;6.60;99.90;;;-146.41;100.00;57768.22;5016739;28;1253;-69
2024/02/12 04:25:04;;;;;;;;;;;6.60;99.90;;;-146.41;100.00;57768.22;5016848;28;1467;-68
2024/02/12 04:27:33;;;;;;;;;;;6.60;99.90;;;-146.41;100.00;57768.22;5018482;28;1401;-69
2024/02/12 04:30:00;;;;;;;;;;;6.50;99.90;;;-146.41;100.00;57768.22;5017607;28;1177;-69
2024/02/12 04:32:27;;;;;;;;;;;6.50;99.90;;;-146.41;100.00;57768.22;5017613;28;1300;-68
2024/02/12 04:34:56;;;;;;;;;;;6.40;99.90;;;-146.41;100.00;57768.22;5015349;28;1394;-69
2024/02/12 04:37:23;;;;;;;;;;;6.40;99.90;;;-146.41;100.00;57768.22;5016738;28;1228;-69
2024/02/12 04:39:50;;;;;;;;;;;6.40;99.90;;;-146.41;100.00;57768.22;5018227;28;1902;-68
2024/02/12 04:42:17;;;;;;;;;;;6.30;99.90;;;-146.41;100.00;57768.22;5017581;28;1445;-68
2024/02/12 04:44:43;;;;;;;;;;;6.30;99.90;;;-146.41;100.00;57768.22;5016994;28;1283;-68
2024/02/12 04:47:10;;;;;;;;;;;6.20;99.90;;;-146.41;100.00;57768.22;5015764;28;1070;-68
2024/02/12 04:49:37;;;;;;;;;;;6.20;99.90;;;-146.41;100.00;57768.22;5022848;28;1408;-69
2024/02/12 04:52:05;;;;;;;;;;;6.20;99.90;;;-146.41;100.00;57768.22;5019701;28;1166;-69
2024/02/12 04:54:34;;;;;;;;;;;6.20;99.90;;;-146.41;100.00;57768.22;5020717;28;1367;-69
2024/02/12 04:57:01;;;;;;;;;;;6.30;99.90;;;-146.41;100.00;57768.22;5020627;28;1185;-69
2024/02/12 04:59:28;;;;;;;;;;;6.30;99.90;;;-146.41;100.00;57768.22;5020299;28;2007;-69
2024/02/12 05:01:55;;;;;;;;;;;6.40;99.90;;;-146.41;100.00;57768.22;5021111;28;1188;-68
2024/02/12 05:04:22;;;;;;;;;;;6.40;99.90;;;-146.41;100.00;57768.22;5018253;28;1348;-69
2024/02/12 05:06:50;;;;;;;;;;;6.40;99.90;;;-146.41;100.00;57768.22;5019747;28;1436;-68
2024/02/12 05:09:17;;;;;;;;;;;6.40;99.90;;;-146.41;100.00;57768.22;5021073;28;1375;-69
2024/02/12 05:11:44;;;;;;;;;;;6.50;99.90;;;-146.41;100.00;57768.22;5021728;28;1384;-69
2024/02/12 05:14:10;;;;;;;;;;;6.50;99.90;;;-146.41;100.00;57768.22;5021349;28;1438;-69
2024/02/12 05:16:38;;;;;;;;;;;6.50;99.90;;;-146.41;100.00;57768.22;5019740;28;1268;-69
2024/02/12 05:24:36;;;;;;;;;;;6.50;99.90;;;-146.41;100.00;57768.22;5019522;28;1259;-69
2024/02/12 05:27:03;;;;;;;;;;;6.50;99.90;;;-146.41;100.00;57768.22;5019172;28;1410;-68
2024/02/12 05:29:30;;;;;;;;;;;6.50;99.90;;;-146.41;100.00;57768.22;5022282;28;1327;-69
2024/02/12 05:31:58;;;;;;;;;;;6.40;99.90;;;-146.41;100.00;57768.22;5017723;28;1145;-69
2024/02/12 05:34:25;;;;;;;;;;;6.40;99.90;;;-146.41;100.00;57768.22;5018440;28;1293;-69
2024/02/12 05:36:56;;;;;;;;;;;6.50;99.90;;;-146.41;100.00;57768.22;5020763;28;1334;-69
2024/02/12 05:39:23;;;;;;;;;;;6.50;99.90;;;-146.41;100.00;57768.22;5023874;28;1910;-69
2024/02/12 05:41:51;;;;;;;;;;;6.40;99.90;;;-146.41;100.00;57768.22;5020438;28;1389;-69
2024/02/12 05:44:18;;;;;;;;;;;6.40;99.90;;;-146.41;100.00;57768.22;5019945;28;1379;-68
2024/02/12 05:46:45;;;;;;;;;;;6.40;99.90;;;-146.41;100.00;57768.22;5020875;28;1355;-69
2024/02/12 05:49:14;;;;;;;;;;;6.50;99.90;;;-146.41;100.00;57768.22;5016771;28;1110;-69
2024/02/12 05:51:44;;;;;;;;;;;6.50;99.90;;;-146.41;100.00;57768.22;5019564;28;1347;-68
2024/02/12 05:54:11;;;;;;;;;;;6.60;99.90;;;-146.41;100.00;57768.22;5021917;28;1332;-69
2024/02/12 05:56:39;;;;;;;;;;;6.60;99.90;;;-146.41;100.00;57768.22;5022111;28;1430;-68
2024/02/12 05:59:09;;;;;;;;;;;6.60;99.90;;;-146.41;100.00;57768.22;5020237;28;1421;-69
2024/02/12 06:01:37;;;;;;;;;;;6.50;99.90;;;-146.41;100.00;57768.22;5013503;28;1902;-69
2024/02/12 06:04:04;;;;;;;;;;;6.60;99.90;;;-146.41;100.00;57768.22;5020061;28;1371;-69
2024/02/12 06:06:36;;;;;;;;;;;6.60;99.90;;;-146.41;100.00;57768.22;5019734;28;1312;-68
2024/02/12 06:09:03;;;;;;;;;;;6.70;99.90;;;-146.41;100.00;57768.22;5021569;28;1384;-68
2024/02/12 06:11:31;;;;;;;;;;;6.60;99.90;;;-146.41;100.00;57768.22;5018236;28;1184;-68
2024/02/12 06:13:58;;;;;;;;;;;6.40;99.90;;;-146.41;100.00;57768.22;5019282;28;1362;-68
2024/02/12 06:16:25;;;;;;;;;;;6.40;99.90;;;-146.41;100.00;57768.22;5021058;28;1284;-67
2024/02/12 06:18:52;;;;;;;;;;;6.30;99.90;;;-146.41;100.00;57768.22;5017722;28;1169;-68
2024/02/12 06:21:20;;;;;;;;;;;6.20;99.90;;;-146.41;100.00;57768.22;5020174;28;2000;-68
2024/02/12 06:23:47;;;;;;;;;;;6.10;99.90;;;-146.41;100.00;57768.22;5018738;28;1401;-68
2024/02/12 06:26:19;;;;;;;;;;;6.10;99.90;;;-146.41;100.00;57768.22;5015483;28;1320;-67
2024/02/12 06:28:49;;;;;;;;;;;6.10;99.90;;;-146.41;100.00;57768.22;5020274;28;1330;-68
2024/02/12 06:31:17;;;;;;;;;;;6.00;99.90;;;-146.41;100.00;57768.22;5020614;28;1152;-68
2024/02/12 06:33:43;;;;;;;;;;;6.10;99.90;;;-146.41;100.00;57768.22;5018019;28;1048;-69
2024/02/12 06:36:10;;;;;;;;;;;6.10;99.90;;;-146.41;100.00;57768.22;5016562;28;1277;-68
2024/02/12 06:38:38;;;;;;;;;;;6.00;99.90;;;-146.41;100.00;57768.22;5020894;28;1211;-69
2024/02/12 06:41:05;;;;;;;;;;;6.00;99.90;;;-146.41;100.00;57768.22;5019858;28;1985;-68
2024/02/12 06:43:32;;;;;;;;;;;6.00;99.90;;;-146.41;100.00;57768.22;5019201;28;1476;-68
2024/02/12 06:45:59;;;;;;;;;;;6.00;99.90;;;-146.41;100.00;57768.22;5019993;28;1450;-68
2024/02/12 06:48:26;;;;;;;;;;;5.90;99.90;;;-146.41;100.00;57768.22;5020385;28;1150;-68
2024/02/12 06:50:53;;;;;;;;;;;5.90;99.90;;;-146.41;100.00;57768.22;5019376;28;1133;-68
2024/02/12 06:53:20;;;;;;;;;;;5.90;99.90;;;-146.41;100.00;57768.22;5017725;28;1309;-68
2024/02/12 06:55:47;;;;;;;;;;;6.00;99.90;;;-146.41;100.00;57768.22;5019227;28;1424;-68
2024/02/12 06:58:14;;;;;;;;;;;6.00;99.90;;;-146.41;100.00;57768.22;5019738;28;1323;-68
2024/02/12 07:00:41;;;;;;;;;;;6.00;99.90;;;-146.41;100.00;57768.22;5017757;28;2001;-68
2024/02/12 07:03:08;;;;;;;;;;;6.10;99.90;;;-146.41;100.00;57768.22;5016618;28;1221;-68
2024/02/12 07:05:35;;;;;;;;;;;6.10;99.90;;;-146.41;100.00;57768.22;5017154;28;1439;-69
2024/02/12 07:08:03;;;;;;;;;;;6.10;99.90;;;-146.41;100.00;57768.22;5020675;28;2005;-69
2024/02/12 07:10:29;;;;;;;;;;;6.10;99.90;;;-146.41;100.00;57768.22;5019959;28;1294;-69
2024/02/12 07:12:57;;;;;;;;;;;6.20;99.90;;;-146.41;100.00;57768.22;5018582;28;1413;-68
2024/02/12 07:15:24;;;;;;;;;;;6.20;99.90;;;-146.41;100.00;57768.22;5022496;28;1382;-68
2024/02/12 07:17:51;;;;;;;;;;;6.20;99.90;;;-146.41;100.00;57768.22;5018736;28;1161;-69
2024/02/12 07:20:19;;;;;;;;;;;6.20;99.90;;;-146.41;100.00;57768.22;5019468;28;1907;-68
2024/02/12 07:22:47;;;;;;;;;;;6.20;99.90;;;-146.41;100.00;57768.22;5020074;28;1964;-69
2024/02/12 07:25:14;;;;;;;;;;;6.10;99.90;;;-146.41;100.00;57768.22;5017739;28;1296;-69
2024/02/12 07:27:43;;;;;;;;;;;6.10;99.90;;;-146.41;100.00;57768.22;5020819;28;1399;-69
2024/02/12 07:30:10;;;;;;;;;;;6.10;99.90;;;-146.41;100.00;57768.22;5014787;28;1293;-69
2024/02/12 07:32:40;;;;;;;;;;;6.10;99.90;;;-146.41;100.00;57768.22;5019558;28;1048;-69
2024/02/12 07:35:10;;;;;;;;;;;6.00;99.90;;;-146.41;100.00;57768.22;5003334;28;1332;-69
2024/02/12 07:37:41;;;;;;;;;;;6.10;99.90;;;-146.41;100.00;57768.22;5016501;28;1272;-69
2024/02/12 07:40:11;;;;;;;;;;;6.10;99.90;;;-146.41;100.00;57768.22;5018618;28;2016;-69
2024/02/12 07:42:39;;;;;;;;;;;6.10;99.90;;;-146.41;100.00;57768.22;5017583;28;1165;-69
2024/02/12 07:45:10;;;;;;;;;;;6.10;99.90;;;-146.41;100.00;57768.22;5017248;28;1379;-69
2024/02/12 07:47:39;;;;;;;;;;;6.10;99.90;;;-146.41;100.00;57768.22;5017146;28;1177;-69
2024/02/12 07:50:06;;;;;;;;;;;6.10;99.90;;;-146.41;100.00;57768.22;5019845;28;1308;-68
2024/02/12 07:52:33;;;;;;;;;;;6.10;99.90;;;-146.41;100.00;57768.22;5020207;28;1240;-69
2024/02/12 07:55:01;;;;;;;;;;;6.10;99.90;;;-146.41;100.00;57768.22;5014451;28;1311;-69
2024/02/12 07:57:28;;;;;;;;;;;6.00;99.90;;;-146.41;100.00;57768.22;5017941;28;1477;-68
2024/02/12 07:59:56;;;;;;;;;;;6.10;99.90;;;-146.41;100.00;57768.22;5018136;28;1969;-69
2024/02/12 08:02:24;;;;;;;;;;;6.20;99.90;;;-146.41;100.00;57768.22;5013440;28;1109;-68
2024/02/12 08:04:51;;;;;;;;;;;6.20;99.90;;;-146.41;100.00;57768.22;5015882;28;1366;-69
2024/02/12 08:07:18;;;;;;;;;;;6.20;99.90;;;-146.41;100.00;57768.22;5012708;28;1085;-68
2024/02/12 08:09:46;;;;;;;;;;;6.20;99.90;;;-146.41;100.00;57768.22;5018429;28;1130;-69
2024/02/12 08:12:15;;;;;;;;;;;6.10;99.90;;;-146.41;100.00;57768.22;5017929;28;1385;-68
2024/02/12 08:14:42;;;;;;;;;;;6.20;99.90;;;-146.41;100.00;57768.22;5021453;28;1500;-69
2024/02/12 08:17:10;;;;;;;;;;;6.20;99.90;;;-146.41;100.00;57768.22;5017519;28;1913;-68
2024/02/12 08:19:40;;;;;;;;;;;6.20;99.90;;;-146.41;100.00;57768.22;5015961;28;1228;-69
2024/02/12 08:22:07;;;;;;;;;;;6.30;99.90;;;-146.41;100.00;57768.22;5018558;28;1939;-69
2024/02/12 08:24:34;;;;;;;;;;;6.40;99.90;;;-146.41;100.00;57768.22;5020250;28;1249;-68
2024/02/12 08:27:01;;;;;;;;;;;6.40;99.90;;;-146.41;100.00;57768.22;5020749;28;1415;-69
2024/02/12 08:29:29;;;;;;;;;;;6.40;99.90;;;-146.41;100.00;57768.22;5021422;28;1393;-69
2024/02/12 08:31:56;;;;;;;;;;;6.50;99.90;;;-146.41;100.00;57768.22;5021181;28;1123;-68
2024/02/12 08:34:23;;;;;;;;;;;6.40;99.90;;;-146.41;100.00;57768.22;5021861;28;1367;-69
2024/02/12 08:36:50;;;;;;;;;;;6.40;99.90;;;-146.41;100.00;57768.22;5021280;28;1193;-68
2024/02/12 08:39:17;;;;;;;;;;;6.50;99.90;;;-146.41;100.00;57768.22;5020990;28;1362;-68
2024/02/12 08:41:49;;;;;;;;;;;6.60;99.90;;;-146.41;100.00;57768.22;5021808;28;1906;-68
2024/02/12 08:44:16;;;;;;;;;;;6.60;99.90;;;-146.41;100.00;57768.22;5020877;28;1382;-68
2024/02/12 08:46:44;;;;;;;;;;;6.60;99.90;;;-146.41;100.00;57768.22;5020565;28;1070;-68
2024/02/12 08:49:11;;;;;;;;;;;6.60;99.90;;;-146.41;100.00;57768.22;5021546;28;1376;-69
2024/02/12 08:51:38;;;;;;;;;;;6.60;99.90;;;-146.41;100.00;57768.22;5018849;28;1284;-69
2024/02/12 08:54:05;;;;;;;;;;;6.50;99.90;;;-146.41;100.00;57768.22;5020214;28;1337;-68
2024/02/12 08:56:33;;;;;;;;;;;6.40;99.90;;;-146.41;100.00;57768.22;5020326;28;1370;-69
2024/02/12 08:59:01;;;;;;;;;;;6.50;99.90;;;-146.41;100.00;57768.22;5022707;28;1274;-68
2024/02/12 09:01:28;;;;;;;;;;;6.50;99.90;;;-146.41;100.00;57768.22;5019921;28;1910;-67
2024/02/12 09:03:57;;;;;;;;;;;6.50;99.90;;;-146.41;100.00;57768.22;5021331;28;1369;-69
2024/02/12 09:06:24;;;;;;;;;;;6.60;99.90;;;-146.41;100.00;57768.22;5019642;28;1201;-69
2024/02/12 09:08:51;;;;;;;;;;;6.50;99.90;;;-146.41;100.00;57768.22;5019902;28;1418;-68
2024/02/12 09:11:18;;;;;;;;;;;6.50;99.90;;;-146.41;100.00;57768.22;5021191;28;1357;-68
2024/02/12 09:13:48;;;;;;;;;;;6.60;99.90;;;-146.41;100.00;57768.22;5020579;28;1086;-68
2024/02/12 09:16:14;;;;;;;;;;;6.50;99.90;;;-146.41;100.00;57768.22;5019638;28;1363;-69
2024/02/12 09:18:41;;;;;;;;;;;6.60;99.90;;;-146.41;100.00;57768.22;5020365;28;1157;-69
2024/02/12 09:21:08;;;;;;;;;;;6.50;99.90;;;-146.41;100.00;57768.22;5019434;28;1977;-68
2024/02/12 09:23:35;;;;;;;;;;;6.50;99.90;;;-146.41;100.00;57768.22;5020105;28;1338;-68
2024/02/12 09:26:02;;;;;;;;;;;6.50;99.90;;;-146.41;100.00;57768.22;5018809;28;1347;-69
2024/02/12 09:28:29;;;;;;;;;;;6.50;99.90;;;-146.41;100.00;57768.22;5023869;28;1307;-68
2024/02/12 09:30:58;;;;;;;;;;;6.50;99.90;;;-146.41;100.00;57768.22;5022344;28;1307;-68
2024/02/12 09:33:25;;;;;;;;;;;6.50;99.90;;;-146.41;100.00;57768.22;5017722;28;1202;-67
2024/02/12 09:35:52;;;;;;;;;;;6.50;99.90;;;-146.41;100.00;57768.22;5019921;28;1422;-68
2024/02/12 09:38:20;;;;;;;;;;;6.50;99.90;;;-146.41;100.00;57768.22;5017679;28;1398;-68
2024/02/12 09:40:50;;;;;;;;;;;6.60;99.90;;;-146.41;100.00;57768.22;5018705;28;1939;-68
2024/02/12 09:43:21;;;;;;;;;;;6.60;99.90;;;-146.41;100.00;57768.22;5018043;28;1373;-68
2024/02/12 09:45:49;;;;;;;;;;;6.60;99.90;;;-146.41;100.00;57768.22;5019417;28;1392;-69
2024/02/12 09:48:17;;;;;;;;;;;6.60;99.90;;;-146.41;100.00;57768.22;5020267;28;1284;-69
2024/02/12 09:50:49;;;;;;;;;;;6.50;99.90;;;-146.41;100.00;57768.22;5017006;28;1239;-68
2024/02/12 09:53:19;;;;;;;;;;;6.40;99.90;;;-146.41;100.00;57768.22;5005448;28;1181;-69
2024/02/12 09:55:47;;;;;;;;;;;6.40;99.90;;;-146.41;100.00;57768.22;5016585;28;1614;-69
2024/02/12 09:58:18;;;;;;;;;;;6.40;99.90;;;-146.41;100.00;57768.22;5019988;28;1193;-69
2024/02/12 10:00:46;;;;;;;;;;;6.40;99.90;;;-146.41;100.00;57768.22;5032167;28;1989;-68
2024/02/12 10:03:13;;;;;;;;;;;6.40;99.90;;;-146.41;100.00;57768.22;5018706;28;1395;-68
2024/02/12 10:05:41;;;;;;;;;;;6.30;99.90;;;-146.41;100.00;57768.22;5018252;28;1268;-68
2024/02/12 10:08:22;;;;;;;;;;;6.30;99.90;;;-146.41;100.00;57768.22;5019680;28;1437;-69
2024/02/12 10:10:49;;;;;;;;;;;6.20;99.90;;;-146.41;100.00;57768.22;5021022;28;1337;-68
2024/02/12 10:13:16;;;;;;;;;;;6.30;99.90;;;-146.41;100.00;57768.22;5018710;28;1223;-68
2024/02/12 10:15:45;;;;;;;;;;;6.20;99.90;;;-146.41;100.00;57768.22;5019925;28;1919;-68
2024/02/12 10:18:15;;;;;;;;;;;6.20;99.90;;;-146.41;100.00;57768.22;5005112;28;1209;-68
2024/02/12 10:20:43;;;;;;;;;;;6.20;99.90;;;-146.41;100.00;57768.22;5019415;28;1914;-68
2024/02/12 10:23:15;;;;;;;;;;;6.40;99.90;;;-146.41;100.00;57768.22;5017439;28;1432;-69
2024/02/12 10:25:45;;;;;;;;;;;6.50;99.90;;;-146.41;100.00;57768.22;5020081;28;1463;-68
2024/02/12 10:28:13;;;;;;;;;;;6.70;99.90;;;-146.41;100.00;57768.22;5019314;28;1442;-68
2024/02/12 10:30:42;;;;;;;;;;;6.80;99.90;;;-146.41;100.00;57768.22;5017444;28;1124;-68
2024/02/12 10:33:11;;;;;;;;;;;6.70;99.90;;;-146.41;100.00;57768.22;5016615;28;1115;-67
2024/02/12 10:35:40;;;;;;;;;;;6.70;99.90;;;-146.41;100.00;57768.22;5017914;28;1292;-68
2024/02/12 10:38:07;;;;;;;;;;;6.60;99.90;;;-146.41;100.00;57768.22;5018435;28;1438;-68
2024/02/12 10:40:56;;;;;;;;;;;6.60;99.90;;;-146.41;100.00;57768.22;5020428;28;1269;-68
2024/02/12 10:43:23;;;;;;;;;;;6.60;99.90;;;-146.41;100.00;57768.22;5018367;28;1242;-69
2024/02/12 10:45:53;;;;;;;;;;;6.60;99.90;;;-146.41;100.00;57768.22;5016880;28;1449;-68
2024/02/12 10:48:20;;;;;;;;;;;6.60;99.90;;;-146.41;100.00;57768.22;5016813;28;1261;-68
2024/02/12 10:50:48;;;;;;;;;;;6.40;99.90;;;-146.41;100.00;57768.22;5017902;28;1469;-69
2024/02/12 10:53:19;;;;;;;;;;;6.50;99.90;;;-146.41;100.00;57768.22;5019548;28;1632;-68
2024/02/12 10:55:46;;;;;;;;;;;6.50;99.90;;;-146.41;100.00;57768.22;5017256;28;1347;-68
2024/02/12 10:58:13;;;;;;;;;;;6.50;99.90;;;-146.41;100.00;57768.22;5017655;28;1077;-69
2024/02/12 11:00:40;;;;;;;;;;;6.50;99.90;;;-146.41;100.00;57768.22;5021898;28;1087;-68
2024/02/12 11:03:18;;;;;;;;;;;6.50;99.90;;;-146.41;100.00;57768.22;5015611;28;1165;-69
2024/02/12 11:06:04;;;;;;;;;;;6.60;99.90;;;-146.41;100.00;57768.22;5014282;28;1426;-69
2024/02/12 11:08:36;;;;;;;;;;;6.50;99.90;;;-146.41;100.00;57768.22;5016232;28;1424;-69
2024/02/12 11:11:22;;;;;;;;;;;6.50;99.90;;;-146.41;100.00;57768.22;5013387;28;1237;-69
2024/02/12 11:14:05;;;;;;;;;;;6.50;99.90;;;-146.41;100.00;57768.22;5018469;28;1172;-69
2024/02/12 11:16:38;;;;;;;;;;;6.50;99.90;;;-146.41;100.00;57768.22;5015996;28;1109;-68
2024/02/12 11:19:07;;;;;;;;;;;6.60;99.90;;;-146.41;100.00;57768.22;5014350;28;1308;-69
2024/02/12 11:21:38;;;;;;;;;;;6.70;99.90;;;-146.41;100.00;57768.22;5016153;28;1922;-68
2024/02/12 11:24:08;;;;;;;;;;;6.80;99.90;;;-146.41;100.00;57768.22;5016594;28;1395;-68
2024/02/12 11:26:43;;;;;;;;;;;6.90;99.90;;;-146.41;100.00;57768.22;5015955;28;2007;-69
2024/02/12 11:29:13;;;;;;;;;;;7.10;99.90;;;-146.41;100.00;57768.22;5020916;28;1273;-69
2024/02/12 11:31:41;;;;;;;;;;;7.20;99.90;;;-146.41;100.00;57768.22;5020738;28;1324;-68